Time,TemperatureF,DewpointF,PressureIn,WindDirection,WindDirectionDegrees,WindSpeedMPH,WindSpeedGustMPH,Humidity,HourlyPrecipIn,Conditions,Clouds,dailyrainin,SoftwareType,DateUTC
2013-12-20 00:02:00,65.2,62.8,29.82,SSE,157,9.2,9.2,92,0.00,CLR,,0.00,WeatherDisplay:10.37,2013-12-20 06:02:00,
2013-12-20 00:07:00,65.1,62.7,29.82,SE,133,11.5,11.5,92,0.00,CLR,,0.00,WeatherDisplay:10.37,2013-12-20 06:07:00,
2013-12-20 00:25:00,64.9,62.5,29.82,South,174,11.5,11.5,92,0.00,CLR,,0.00,WeatherDisplay:10.37,2013-12-20 06:25:00,
2013-12-20 00:30:00,64.7,62.3,29.82,SE,136,10.0,10.0,92,0.00,CLR,,0.00,WeatherDisplay:10.37,2013-12-20 06:30:00,
2013-12-20 00:35:00,64.6,62.5,29.82,South,169,9.2,9.2,93,0.00,CLR,,0.00,WeatherDisplay:10.37,2013-12-20 06:35:00,
2013-12-20 00:40:00,64.6,62.5,29.82,SSE,159,10.4,10.4,93,0.00,CLR,,0.00,WeatherDisplay:10.37,2013-12-20 06:40:00,
2013-12-20 00:45:00,64.7,62.6,29.82,SSE,156,11.5,11.5,93,0.00,CLR,,0.00,WeatherDisplay:10.37,2013-12-20 06:45:00,
2013-12-20 00:50:00,64.8,62.7,29.82,SSE,167,8.1,8.1,93,0.00,CLR,,0.00,WeatherDisplay:10.37,2013-12-20 06:50:00,
2013-12-20 00:55:00,64.8,62.7,29.82,SSE,162,11.5,11.5,93,0.00,CLR,,0.00,WeatherDisplay:10.37,2013-12-20 06:55:00,
2013-12-20 01:00:00,65.0,62.9,29.82,SSE,164,9.2,9.2,93,0.00,CLR,,0.00,WeatherDisplay:10.37,2013-12-20 07:00:00,
2013-12-20 01:05:00,65.0,62.9,29.82,South,183,8.1,8.1,93,0.00,CLR,,0.00,WeatherDisplay:10.37,2013-12-20 07:05:00,
2013-12-20 01:10:00,65.1,63.0,29.82,South,173,11.5,11.5,93,0.00,CLR,,0.00,WeatherDisplay:10.37,2013-12-20 07:10:00,
2013-12-20 01:15:00,65.2,63.1,29.82,SSE,154,11.5,11.5,93,0.00,CLR,,0.00,WeatherDisplay:10.37,2013-12-20 07:15:00,
2013-12-20 01:20:00,65.2,63.1,29.82,SE,135,9.2,9.2,93,0.00,CLR,,0.00,WeatherDisplay:10.37,2013-12-20 07:20:00,
2013-12-20 01:25:00,65.3,63.2,29.82,SSE,166,11.5,11.5,93,0.00,CLR,,0.00,WeatherDisplay:10.37,2013-12-20 07:25:00,
2013-12-20 01:30:00,65.3,63.2,29.81,SSE,165,13.8,13.8,93,0.00,CLR,,0.00,WeatherDisplay:10.37,2013-12-20 07:30:00,
2013-12-20 01:35:00,65.4,63.3,29.81,SSE,163,11.5,11.5,93,0.00,CLR,,0.00,WeatherDisplay:10.37,2013-12-20 07:35:00,
2013-12-20 01:40:00,65.4,63.3,29.81,SSE,160,13.8,13.8,93,0.00,CLR,,0.00,WeatherDisplay:10.37,2013-12-20 07:40:00,
2013-12-20 01:45:00,65.5,63.4,29.81,SSE,154,20.7,20.7,93,0.00,CLR,,0.00,WeatherDisplay:10.37,2013-12-20 07:45:00,
2013-12-20 01:50:00,65.5,63.4,29.81,SSE,150,13.8,13.8,93,0.00,CLR,,0.00,WeatherDisplay:10.37,2013-12-20 07:50:00,
2013-12-20 01:55:00,65.6,63.5,29.81,SSE,162,13.8,13.8,93,0.00,CLR,,0.00,WeatherDisplay:10.37,2013-12-20 07:55:00,
2013-12-20 02:00:00,65.5,63.4,29.81,SSE,165,15.0,15.0,93,0.00,CLR,,0.00,WeatherDisplay:10.37,2013-12-20 08:00:00,
2013-12-20 02:05:00,65.5,63.4,29.81,SSE,163,16.1,16.1,93,0.00,CLR,,0.00,WeatherDisplay:10.37,2013-12-20 08:05:00,
2013-12-20 02:10:00,65.6,63.5,29.81,South,184,15.0,15.0,93,0.00,CLR,,0.00,WeatherDisplay:10.37,2013-12-20 08:10:00,
2013-12-20 02:15:00,65.6,63.5,29.81,SSE,160,11.5,11.5,93,0.00,CLR,,0.00,WeatherDisplay:10.37,2013-12-20 08:15:00,
2013-12-20 02:20:00,65.5,63.4,29.81,SSE,162,10.4,10.4,93,0.00,CLR,,0.00,WeatherDisplay:10.37,2013-12-20 08:20:00,
2013-12-20 02:25:00,65.6,63.5,29.81,SSE,165,9.2,9.2,93,0.00,CLR,,0.00,WeatherDisplay:10.37,2013-12-20 08:25:00,
2013-12-20 02:30:00,65.5,63.4,29.81,South,169,6.9,6.9,93,0.00,CLR,,0.00,WeatherDisplay:10.37,2013-12-20 08:30:00,
2013-12-20 02:35:00,65.5,63.4,29.81,SSE,161,8.0,8.0,93,0.00,CLR,,0.00,WeatherDisplay:10.37,2013-12-20 08:35:00,
2013-12-20 02:40:00,65.5,63.4,29.81,South,169,4.6,4.6,93,0.00,CLR,,0.00,WeatherDisplay:10.37,2013-12-20 08:40:00,
2013-12-20 02:45:00,65.5,63.4,29.81,SSE,154,6.9,6.9,93,0.00,CLR,,0.00,WeatherDisplay:10.37,2013-12-20 08:45:00,
2013-12-20 02:50:00,65.5,63.4,29.81,SSE,161,5.8,5.8,93,0.00,CLR,,0.00,WeatherDisplay:10.37,2013-12-20 08:50:00,
2013-12-20 02:55:00,65.6,63.5,29.80,South,180,6.0,6.0,93,0.00,CLR,,0.00,WeatherDisplay:10.37,2013-12-20 08:55:00,
2013-12-20 03:00:00,65.6,63.5,29.80,South,174,6.9,6.9,93,0.00,CLR,,0.00,WeatherDisplay:10.37,2013-12-20 09:00:00,
2013-12-20 03:05:00,65.6,63.5,29.81,South,186,5.8,5.8,93,0.00,CLR,,0.00,WeatherDisplay:10.37,2013-12-20 09:05:00,
2013-12-20 03:10:00,65.6,63.5,29.81,SSE,153,4.6,4.6,93,0.00,CLR,,0.00,WeatherDisplay:10.37,2013-12-20 09:10:00,
2013-12-20 03:15:00,65.6,63.5,29.81,SSE,165,4.6,4.6,93,0.00,CLR,,0.00,WeatherDisplay:10.37,2013-12-20 09:15:00,
2013-12-20 03:20:00,65.7,63.6,29.81,SSW,197,5.8,5.8,93,0.00,CLR,,0.00,WeatherDisplay:10.37,2013-12-20 09:20:00,
2013-12-20 03:25:00,65.7,63.6,29.81,SSE,166,5.8,5.8,93,0.00,CLR,,0.00,WeatherDisplay:10.37,2013-12-20 09:25:00,
2013-12-20 03:30:00,65.7,63.6,29.81,South,171,5.8,5.8,93,0.00,CLR,,0.00,WeatherDisplay:10.37,2013-12-20 09:30:00,
2013-12-20 03:35:00,65.8,63.7,29.81,SSE,162,5.8,5.8,93,0.00,CLR,,0.00,WeatherDisplay:10.37,2013-12-20 09:35:00,
2013-12-20 03:40:00,65.7,63.6,29.81,South,172,5.8,5.8,93,0.00,CLR,,0.00,WeatherDisplay:10.37,2013-12-20 09:40:00,
2013-12-20 03:45:00,65.8,63.7,29.81,South,180,6.0,6.0,93,0.00,CLR,,0.00,WeatherDisplay:10.37,2013-12-20 09:45:00,
2013-12-20 03:50:00,65.8,63.7,29.81,South,173,4.6,4.6,93,0.00,CLR,,0.00,WeatherDisplay:10.37,2013-12-20 09:50:00,
2013-12-20 03:55:00,65.8,63.7,29.81,SE,145,4.6,4.6,93,0.00,CLR,,0.00,WeatherDisplay:10.37,2013-12-20 09:55:00,
2013-12-20 04:00:00,65.8,63.7,29.81,SSE,155,5.8,5.8,93,0.00,CLR,,0.00,WeatherDisplay:10.37,2013-12-20 10:00:00,
2013-12-20 04:05:00,65.8,63.7,29.81,South,181,5.8,5.8,93,0.00,CLR,,0.00,WeatherDisplay:10.37,2013-12-20 10:05:00,
2013-12-20 04:10:00,65.8,63.7,29.81,SSE,163,4.6,4.6,93,0.00,CLR,,0.00,WeatherDisplay:10.37,2013-12-20 10:10:00,
2013-12-20 04:15:00,65.8,63.7,29.81,South,169,5.8,5.8,93,0.00,CLR,,0.00,WeatherDisplay:10.37,2013-12-20 10:15:00,
2013-12-20 04:20:00,65.8,63.7,29.81,SSE,165,4.0,4.0,93,0.00,CLR,,0.00,WeatherDisplay:10.37,2013-12-20 10:20:00,
2013-12-20 04:25:00,65.8,63.7,29.81,SSE,151,5.8,5.8,93,0.00,CLR,,0.00,WeatherDisplay:10.37,2013-12-20 10:25:00,
2013-12-20 04:30:00,65.8,63.7,29.81,SSE,150,6.9,6.9,93,0.00,CLR,,0.00,WeatherDisplay:10.37,2013-12-20 10:30:00,
2013-12-20 04:35:00,66.0,63.9,29.81,SSW,201,6.9,6.9,93,0.00,CLR,,0.00,WeatherDisplay:10.37,2013-12-20 10:35:00,
2013-12-20 04:40:00,66.1,64.0,29.81,SSW,195,3.5,3.5,93,0.00,CLR,,0.00,WeatherDisplay:10.37,2013-12-20 10:40:00,
2013-12-20 04:45:00,66.1,64.0,29.81,SSE,167,5.0,5.0,93,0.00,CLR,,0.00,WeatherDisplay:10.37,2013-12-20 10:45:00,
2013-12-20 04:50:00,66.2,64.1,29.81,SSW,207,5.0,5.0,93,0.00,CLR,,0.00,WeatherDisplay:10.37,2013-12-20 10:50:00,
2013-12-20 04:55:00,66.2,64.1,29.81,South,185,5.8,5.8,93,0.00,CLR,,0.00,WeatherDisplay:10.37,2013-12-20 10:55:00,
2013-12-20 05:00:00,66.2,63.8,29.81,SSE,165,3.5,3.5,92,0.00,CLR,,0.00,WeatherDisplay:10.37,2013-12-20 11:00:00,
2013-12-20 05:05:00,66.2,63.8,29.81,SSE,162,3.5,3.5,92,0.00,CLR,,0.00,WeatherDisplay:10.37,2013-12-20 11:05:00,
2013-12-20 05:10:00,66.2,63.8,29.81,South,169,3.5,3.5,92,0.00,CLR,,0.00,WeatherDisplay:10.37,2013-12-20 11:10:00,
2013-12-20 05:15:00,66.2,63.8,29.81,South,169,2.3,2.3,92,0.00,CLR,,0.00,WeatherDisplay:10.37,2013-12-20 11:15:00,
2013-12-20 05:20:00,66.2,63.8,29.80,SSE,159,3.5,3.5,92,0.00,CLR,,0.00,WeatherDisplay:10.37,2013-12-20 11:20:00,
2013-12-20 05:25:00,66.1,64.0,29.81,SSE,167,3.5,3.7,93,0.00,CLR,,0.00,WeatherDisplay:10.37,2013-12-20 11:25:00,
2013-12-20 05:30:00,66.1,64.0,29.81,South,174,3.5,3.5,93,0.00,CLR,,0.00,WeatherDisplay:10.37,2013-12-20 11:30:00,
2013-12-20 05:35:00,66.1,64.0,29.81,SE,146,3.5,3.5,93,0.00,CLR,,0.00,WeatherDisplay:10.37,2013-12-20 11:35:00,
2013-12-20 05:40:00,66.2,64.1,29.81,South,191,3.5,3.5,93,0.00,CLR,,0.00,WeatherDisplay:10.37,2013-12-20 11:40:00,
2013-12-20 05:45:00,66.2,64.1,29.81,SSW,193,3.5,3.5,93,0.00,CLR,,0.00,WeatherDisplay:10.37,2013-12-20 11:45:00,
2013-12-20 05:50:00,66.2,64.1,29.81,South,176,3.5,3.5,93,0.00,CLR,,0.00,WeatherDisplay:10.37,2013-12-20 11:50:00,
2013-12-20 05:55:00,66.3,64.2,29.81,South,181,3.5,3.5,93,0.00,CLR,,0.00,WeatherDisplay:10.37,2013-12-20 11:55:00,
2013-12-20 06:00:00,66.4,64.0,29.81,SSE,154,5.8,5.8,92,0.00,CLR,,0.00,WeatherDisplay:10.37,2013-12-20 12:00:00,
2013-12-20 06:05:00,66.4,64.0,29.82,SSW,197,6.9,6.9,92,0.00,CLR,,0.00,WeatherDisplay:10.37,2013-12-20 12:05:00,
2013-12-20 06:10:00,66.5,64.1,29.82,SSW,193,6.9,6.9,92,0.00,CLR,,0.00,WeatherDisplay:10.37,2013-12-20 12:10:00,
2013-12-20 06:15:00,66.6,64.2,29.82,SSW,198,6.9,6.9,92,0.00,CLR,,0.00,WeatherDisplay:10.37,2013-12-20 12:15:00,
2013-12-20 06:20:00,66.7,64.3,29.82,SSE,166,6.9,6.9,92,0.00,CLR,,0.00,WeatherDisplay:10.37,2013-12-20 12:20:00,
2013-12-20 06:25:00,66.8,64.4,29.82,South,172,6.9,6.9,92,0.00,CLR,,0.00,WeatherDisplay:10.37,2013-12-20 12:25:00,
2013-12-20 06:30:00,66.9,64.5,29.82,South,181,6.9,6.9,92,0.00,CLR,,0.00,WeatherDisplay:10.37,2013-12-20 12:30:00,
2013-12-20 06:35:00,66.9,64.5,29.82,South,190,8.1,8.1,92,0.00,CLR,,0.00,WeatherDisplay:10.37,2013-12-20 12:35:00,
2013-12-20 06:40:00,67.0,64.6,29.81,SW,226,5.8,6.3,92,0.00,CLR,,0.00,WeatherDisplay:10.37,2013-12-20 12:40:00,
2013-12-20 06:45:00,67.1,64.4,29.81,SSW,194,10.4,10.4,91,0.00,CLR,,0.00,WeatherDisplay:10.37,2013-12-20 12:45:00,
2013-12-20 06:50:00,67.2,64.5,29.81,SSW,198,8.1,8.1,91,0.00,CLR,,0.00,WeatherDisplay:10.37,2013-12-20 12:50:00,
2013-12-20 06:55:00,67.3,64.6,29.81,SSE,157,8.1,8.1,91,0.00,CLR,,0.00,WeatherDisplay:10.37,2013-12-20 12:55:00,
2013-12-20 07:00:00,67.4,64.7,29.82,South,187,9.2,9.2,91,0.00,CLR,,0.00,WeatherDisplay:10.37,2013-12-20 13:00:00,
2013-12-20 07:05:00,67.5,64.8,29.82,South,185,8.0,8.0,91,0.00,CLR,,0.00,WeatherDisplay:10.37,2013-12-20 13:05:00,
2013-12-20 07:10:00,67.5,64.8,29.82,SSW,204,8.1,8.1,91,0.00,CLR,,0.00,WeatherDisplay:10.37,2013-12-20 13:10:00,
2013-12-20 07:15:00,67.5,64.8,29.82,South,169,9.2,9.2,91,0.00,CLR,,0.00,WeatherDisplay:10.37,2013-12-20 13:15:00,
2013-12-20 07:20:00,67.5,64.8,29.82,SSE,166,8.1,8.1,91,0.00,CLR,,0.00,WeatherDisplay:10.37,2013-12-20 13:20:00,
2013-12-20 07:25:00,67.6,64.9,29.82,South,188,9.2,9.2,91,0.00,CLR,,0.00,WeatherDisplay:10.37,2013-12-20 13:25:00,
2013-12-20 07:30:00,67.6,64.6,29.82,South,181,4.6,4.8,90,0.00,CLR,,0.00,WeatherDisplay:10.37,2013-12-20 13:30:00,
2013-12-20 07:35:00,67.6,64.9,29.82,SSE,157,6.9,6.9,91,0.00,CLR,,0.00,WeatherDisplay:10.37,2013-12-20 13:35:00,
2013-12-20 07:40:00,67.6,64.9,29.82,SSE,161,5.8,5.8,91,0.00,CLR,,0.00,WeatherDisplay:10.37,2013-12-20 13:40:00,
2013-12-20 07:45:00,67.6,64.9,29.82,SSE,162,4.6,4.6,91,0.00,CLR,,0.00,WeatherDisplay:10.37,2013-12-20 13:45:00,
2013-12-20 07:50:00,67.6,64.9,29.82,South,169,3.5,3.8,91,0.00,CLR,,0.00,WeatherDisplay:10.37,2013-12-20 13:50:00,
2013-12-20 07:55:00,67.6,64.9,29.82,SSE,152,3.5,3.5,91,0.00,CLR,,0.00,WeatherDisplay:10.37,2013-12-20 13:55:00,
2013-12-20 08:00:00,67.6,64.9,29.82,SSE,150,3.5,3.5,91,0.00,CLR,,0.00,WeatherDisplay:10.37,2013-12-20 14:00:00,
2013-12-20 08:05:00,67.6,64.9,29.82,SE,146,3.5,3.5,91,0.00,CLR,,0.00,WeatherDisplay:10.37,2013-12-20 14:05:00,
2013-12-20 08:10:00,67.7,65.0,29.82,SSE,165,4.6,4.6,91,0.00,CLR,,0.00,WeatherDisplay:10.37,2013-12-20 14:10:00,
2013-12-20 08:15:00,67.7,65.0,29.82,SSE,148,3.5,3.5,91,0.00,CLR,,0.00,WeatherDisplay:10.37,2013-12-20 14:15:00,
2013-12-20 08:20:00,67.7,65.0,29.82,SE,145,3.5,3.9,91,0.00,CLR,,0.00,WeatherDisplay:10.37,2013-12-20 14:20:00,
2013-12-20 08:25:00,67.8,65.1,29.82,SE,131,3.5,3.7,91,0.00,CLR,,0.00,WeatherDisplay:10.37,2013-12-20 14:25:00,
2013-12-20 08:30:00,67.9,65.2,29.82,SSE,154,3.5,3.5,91,0.00,CLR,,0.00,WeatherDisplay:10.37,2013-12-20 14:30:00,
2013-12-20 08:35:00,67.9,65.2,29.82,SSE,150,3.5,3.5,91,0.00,CLR,,0.00,WeatherDisplay:10.37,2013-12-20 14:35:00,
2013-12-20 08:40:00,68.0,65.0,29.82,SSE,156,4.0,4.0,90,0.00,CLR,,0.00,WeatherDisplay:10.37,2013-12-20 14:40:00,
2013-12-20 08:45:00,68.1,65.1,29.82,SSE,156,3.5,3.5,90,0.00,CLR,,0.00,WeatherDisplay:10.37,2013-12-20 14:45:00,
2013-12-20 08:50:00,68.2,65.2,29.83,SSE,150,3.5,3.5,90,0.00,CLR,,0.00,WeatherDisplay:10.37,2013-12-20 14:50:00,
2013-12-20 08:55:00,68.2,65.2,29.82,SSE,166,4.6,4.6,90,0.00,CLR,,0.00,WeatherDisplay:10.37,2013-12-20 14:55:00,
2013-12-20 09:00:00,68.3,65.3,29.83,South,174,3.5,3.5,90,0.00,CLR,,0.00,WeatherDisplay:10.37,2013-12-20 15:00:00,
2013-12-20 09:05:00,68.4,65.4,29.83,SSE,159,4.0,4.0,90,0.00,CLR,,0.00,WeatherDisplay:10.37,2013-12-20 15:05:00,
2013-12-20 09:10:00,68.5,65.4,29.83,SSE,163,4.6,4.6,90,0.00,CLR,,0.00,WeatherDisplay:10.37,2013-12-20 15:10:00,
2013-12-20 09:15:00,68.6,65.5,29.83,SSE,161,3.5,3.9,90,0.00,CLR,,0.00,WeatherDisplay:10.37,2013-12-20 15:15:00,
2013-12-20 09:20:00,68.8,65.7,29.83,SSE,158,3.5,3.5,90,0.00,CLR,,0.00,WeatherDisplay:10.37,2013-12-20 15:20:00,
2013-12-20 09:25:00,68.9,65.8,29.83,SSE,165,3.5,3.5,90,0.00,CLR,,0.00,WeatherDisplay:10.37,2013-12-20 15:25:00,
2013-12-20 09:30:00,69.0,65.9,29.83,SSE,167,4.6,4.6,90,0.00,CLR,,0.00,WeatherDisplay:10.37,2013-12-20 15:30:00,
2013-12-20 09:35:00,69.1,65.7,29.83,SSE,162,5.0,5.0,89,0.00,CLR,,0.00,WeatherDisplay:10.37,2013-12-20 15:35:00,
2013-12-20 09:40:00,69.2,65.8,29.83,SSE,158,5.0,5.0,89,0.00,CLR,,0.00,WeatherDisplay:10.37,2013-12-20 15:40:00,
2013-12-20 09:45:00,69.3,65.9,29.83,SSE,161,6.9,6.9,89,0.00,CLR,,0.00,WeatherDisplay:10.37,2013-12-20 15:45:00,
2013-12-20 09:50:00,69.3,65.9,29.83,SE,142,3.5,3.5,89,0.00,CLR,,0.00,WeatherDisplay:10.37,2013-12-20 15:50:00,
2013-12-20 09:55:00,69.4,66.0,29.83,SE,145,4.6,4.6,89,0.00,CLR,,0.00,WeatherDisplay:10.37,2013-12-20 15:55:00,
2013-12-20 10:00:00,69.4,66.0,29.84,SSE,157,5.0,5.0,89,0.00,CLR,,0.00,WeatherDisplay:10.37,2013-12-20 16:00:00,
2013-12-20 10:05:00,69.5,66.1,29.83,SSE,160,5.8,5.8,89,0.00,CLR,,0.00,WeatherDisplay:10.37,2013-12-20 16:05:00,
2013-12-20 10:10:00,69.6,66.2,29.84,SSE,156,4.6,4.6,89,0.00,CLR,,0.00,WeatherDisplay:10.37,2013-12-20 16:10:00,
2013-12-20 10:15:00,69.8,66.4,29.83,South,187,3.5,3.7,89,0.00,CLR,,0.00,WeatherDisplay:10.37,2013-12-20 16:15:00,
2013-12-20 10:20:00,69.9,66.2,29.84,SSE,157,6.9,6.9,88,0.00,CLR,,0.00,WeatherDisplay:10.37,2013-12-20 16:20:00,
2013-12-20 10:25:00,69.9,66.2,29.84,SE,141,4.6,4.6,88,0.00,CLR,,0.00,WeatherDisplay:10.37,2013-12-20 16:25:00,
2013-12-20 10:30:00,70.0,66.3,29.84,SSE,154,6.0,6.0,88,0.00,CLR,,0.00,WeatherDisplay:10.37,2013-12-20 16:30:00,
2013-12-20 10:35:00,70.1,66.4,29.83,SSE,161,5.0,5.0,88,0.00,CLR,,0.00,WeatherDisplay:10.37,2013-12-20 16:35:00,
2013-12-20 10:40:00,70.1,66.4,29.83,SSE,157,4.6,4.6,88,0.00,CLR,,0.00,WeatherDisplay:10.37,2013-12-20 16:40:00,
2013-12-20 10:45:00,70.2,66.5,29.83,South,183,8.1,8.1,88,0.00,CLR,,0.00,WeatherDisplay:10.37,2013-12-20 16:45:00,
2013-12-20 10:50:00,70.4,66.7,29.83,SSE,160,5.8,5.8,88,0.00,CLR,,0.00,WeatherDisplay:10.37,2013-12-20 16:50:00,
2013-12-20 10:55:00,70.5,66.4,29.83,SSE,163,9.2,9.2,87,0.00,CLR,,0.00,WeatherDisplay:10.37,2013-12-20 16:55:00,
2013-12-20 11:00:00,70.6,66.5,29.83,ESE,118,6.0,6.0,87,0.00,CLR,,0.00,WeatherDisplay:10.37,2013-12-20 17:00:00,
2013-12-20 11:05:00,70.7,66.6,29.83,South,169,10.4,10.4,87,0.00,CLR,,0.00,WeatherDisplay:10.37,2013-12-20 17:05:00,
2013-12-20 11:11:00,70.8,66.7,29.82,SSE,158,6.0,6.0,87,0.00,CLR,,0.00,WeatherDisplay:10.37,2013-12-20 17:11:00,
2013-12-20 11:16:00,71.0,66.9,29.82,SSE,153,8.1,8.1,87,0.00,CLR,,0.00,WeatherDisplay:10.37,2013-12-20 17:16:00,
2013-12-20 11:21:00,71.2,66.8,29.82,SSE,154,9.2,9.2,86,0.00,CLR,,0.00,WeatherDisplay:10.37,2013-12-20 17:21:00,
2013-12-20 11:26:00,71.4,67.0,29.82,SSE,165,10.4,10.4,86,0.00,CLR,,0.00,WeatherDisplay:10.37,2013-12-20 17:26:00,
2013-12-20 11:31:00,71.6,67.2,29.81,SSE,164,9.2,9.2,86,0.00,CLR,,0.00,WeatherDisplay:10.37,2013-12-20 17:31:00,
2013-12-20 11:36:00,71.9,67.5,29.81,SSE,153,11.5,11.5,86,0.00,CLR,,0.00,WeatherDisplay:10.37,2013-12-20 17:36:00,
2013-12-20 11:41:00,72.4,67.3,29.81,ESE,122,11.5,11.5,84,0.00,CLR,,0.00,WeatherDisplay:10.37,2013-12-20 17:41:00,
2013-12-20 11:46:00,72.7,67.6,29.80,SSE,156,11.5,11.5,84,0.00,CLR,,0.00,WeatherDisplay:10.37,2013-12-20 17:46:00,
2013-12-20 11:51:00,72.8,67.3,29.80,SE,138,11.5,11.5,83,0.00,CLR,,0.00,WeatherDisplay:10.37,2013-12-20 17:51:00,
2013-12-20 11:56:00,72.7,66.9,29.80,SSE,158,11.5,11.5,82,0.00,CLR,,0.00,WeatherDisplay:10.37,2013-12-20 17:56:00,
2013-12-20 12:01:00,72.7,67.2,29.80,SSE,153,12.7,12.7,83,0.00,CLR,,0.00,WeatherDisplay:10.37,2013-12-20 18:01:00,
2013-12-20 12:06:00,72.7,66.9,29.79,SSE,163,12.7,12.7,82,0.00,CLR,,0.00,WeatherDisplay:10.37,2013-12-20 18:06:00,
2013-12-20 12:11:00,72.8,67.0,29.79,SE,146,13.8,13.8,82,0.00,CLR,,0.00,WeatherDisplay:10.37,2013-12-20 18:11:00,
2013-12-20 12:16:00,72.8,67.0,29.79,SSE,153,11.5,11.5,82,0.00,CLR,,0.00,WeatherDisplay:10.37,2013-12-20 18:16:00,
2013-12-20 12:21:00,72.9,67.1,29.79,SSE,165,15.0,15.0,82,0.00,CLR,,0.00,WeatherDisplay:10.37,2013-12-20 18:21:00,
2013-12-20 12:26:00,72.7,66.9,29.78,ESE,123,12.0,12.0,82,0.00,CLR,,0.00,WeatherDisplay:10.37,2013-12-20 18:26:00,
2013-12-20 12:31:00,72.7,66.9,29.78,SSE,149,13.8,13.8,82,0.00,CLR,,0.00,WeatherDisplay:10.37,2013-12-20 18:31:00,
2013-12-20 12:36:00,72.6,66.8,29.77,SSE,152,13.8,13.8,82,0.00,CLR,,0.00,WeatherDisplay:10.37,2013-12-20 18:36:00,
2013-12-20 12:41:00,72.7,66.9,29.78,SSE,164,11.5,11.5,82,0.00,CLR,,0.00,WeatherDisplay:10.37,2013-12-20 18:41:00,
2013-12-20 12:46:00,72.7,66.9,29.77,SE,140,11.5,11.5,82,0.00,CLR,,0.00,WeatherDisplay:10.37,2013-12-20 18:46:00,
2013-12-20 12:51:00,72.9,67.1,29.77,SE,146,12.7,12.7,82,0.00,CLR,,0.00,WeatherDisplay:10.37,2013-12-20 18:51:00,
2013-12-20 12:56:00,73.2,67.0,29.76,SE,131,11.5,11.5,81,0.00,CLR,,0.00,WeatherDisplay:10.37,2013-12-20 18:56:00,
2013-12-20 13:01:00,73.2,67.0,29.76,SSE,156,11.5,11.5,81,0.00,CLR,,0.00,WeatherDisplay:10.37,2013-12-20 19:01:00,
2013-12-20 13:06:00,73.1,66.9,29.76,SSE,153,15.0,15.0,81,0.00,CLR,,0.00,WeatherDisplay:10.37,2013-12-20 19:06:00,
2013-12-20 13:11:00,73.2,67.0,29.75,SSE,153,8.1,8.1,81,0.00,CLR,,0.00,WeatherDisplay:10.37,2013-12-20 19:11:00,
2013-12-20 13:16:00,73.5,66.9,29.75,SSE,166,13.8,13.8,80,0.00,CLR,,0.00,WeatherDisplay:10.37,2013-12-20 19:16:00,
2013-12-20 13:21:00,73.7,67.1,29.74,SSE,159,12.7,12.7,80,0.00,CLR,,0.00,WeatherDisplay:10.37,2013-12-20 19:21:00,
2013-12-20 13:26:00,73.9,67.3,29.74,SE,135,11.5,11.5,80,0.00,CLR,,0.00,WeatherDisplay:10.37,2013-12-20 19:26:00,
2013-12-20 13:31:00,73.9,67.0,29.74,SE,126,9.2,9.2,79,0.00,CLR,,0.00,WeatherDisplay:10.37,2013-12-20 19:31:00,
2013-12-20 13:33:00,74.1,67.2,29.74,SSE,150,10.4,10.4,79,0.00,CLR,,0.00,WeatherDisplay:10.37,2013-12-20 19:33:00,
2013-12-20 13:38:00,74.1,67.2,29.74,South,172,11.5,11.5,79,0.00,CLR,,0.00,WeatherDisplay:10.37,2013-12-20 19:38:00,
2013-12-20 13:43:00,74.1,66.4,29.73,SSE,163,15.0,15.0,77,0.00,CLR,,0.00,WeatherDisplay:10.37,2013-12-20 19:43:00,
2013-12-20 13:48:00,74.0,66.7,29.73,SSE,159,11.5,11.5,78,0.00,CLR,,0.00,WeatherDisplay:10.37,2013-12-20 19:48:00,
2013-12-20 13:53:00,74.1,66.8,29.73,SSE,149,11.5,11.5,78,0.00,CLR,,0.00,WeatherDisplay:10.37,2013-12-20 19:53:00,
2013-12-20 13:58:00,73.9,66.6,29.73,SSE,159,12.7,12.7,78,0.00,CLR,,0.00,WeatherDisplay:10.37,2013-12-20 19:58:00,
2013-12-20 14:03:00,73.8,66.9,29.72,SSE,162,9.2,9.2,79,0.00,CLR,,0.00,WeatherDisplay:10.37,2013-12-20 20:03:00,
2013-12-20 14:08:00,73.8,66.5,29.72,SSE,164,11.5,11.5,78,0.00,CLR,,0.00,WeatherDisplay:10.37,2013-12-20 20:08:00,
2013-12-20 14:13:00,73.8,66.9,29.72,SSE,150,11.5,11.5,79,0.00,CLR,,0.00,WeatherDisplay:10.37,2013-12-20 20:13:00,
2013-12-20 14:18:00,73.8,66.9,29.72,SE,143,8.1,8.1,79,0.00,CLR,,0.00,WeatherDisplay:10.37,2013-12-20 20:18:00,
2013-12-20 14:23:00,73.9,67.0,29.72,South,175,9.2,9.2,79,0.00,CLR,,0.00,WeatherDisplay:10.37,2013-12-20 20:23:00,
2013-12-20 14:28:00,73.7,66.8,29.72,SE,142,10.4,10.4,79,0.00,CLR,,0.00,WeatherDisplay:10.37,2013-12-20 20:28:00,
2013-12-20 14:33:00,73.7,66.8,29.72,SSE,149,6.9,7.0,79,0.00,CLR,,0.00,WeatherDisplay:10.37,2013-12-20 20:33:00,
2013-12-20 14:38:00,73.7,66.8,29.72,SE,131,9.2,9.2,79,0.00,CLR,,0.00,WeatherDisplay:10.37,2013-12-20 20:38:00,
2013-12-20 14:43:00,73.8,66.9,29.71,SSE,148,6.9,6.9,79,0.00,CLR,,0.00,WeatherDisplay:10.37,2013-12-20 20:43:00,
2013-12-20 14:48:00,73.9,67.0,29.72,South,171,8.1,8.1,79,0.00,CLR,,0.00,WeatherDisplay:10.37,2013-12-20 20:48:00,
2013-12-20 14:53:00,74.0,67.1,29.71,SSE,153,9.0,9.0,79,0.00,CLR,,0.00,WeatherDisplay:10.37,2013-12-20 20:53:00,
2013-12-20 14:58:00,74.0,66.7,29.71,SE,133,10.4,10.4,78,0.00,CLR,,0.00,WeatherDisplay:10.37,2013-12-20 20:58:00,
2013-12-20 15:03:00,74.1,66.8,29.71,SE,135,8.1,8.1,78,0.00,CLR,,0.00,WeatherDisplay:10.37,2013-12-20 21:03:00,
2013-12-20 15:08:00,74.1,66.8,29.71,SSE,156,10.4,10.4,78,0.00,CLR,,0.00,WeatherDisplay:10.37,2013-12-20 21:08:00,
2013-12-20 15:13:00,74.2,66.9,29.70,SE,145,5.8,5.9,78,0.00,CLR,,0.00,WeatherDisplay:10.37,2013-12-20 21:13:00,
2013-12-20 15:18:00,74.2,66.9,29.70,ESE,103,5.8,5.8,78,0.00,CLR,,0.00,WeatherDisplay:10.37,2013-12-20 21:18:00,
2013-12-20 15:23:00,74.2,66.9,29.70,SE,135,6.0,6.0,78,0.00,CLR,,0.00,WeatherDisplay:10.37,2013-12-20 21:23:00,
2013-12-20 15:28:00,74.2,66.9,29.70,ESE,114,8.1,8.1,78,0.00,CLR,,0.00,WeatherDisplay:10.37,2013-12-20 21:28:00,
2013-12-20 15:33:00,74.3,67.0,29.70,SE,143,10.4,10.4,78,0.00,CLR,,0.00,WeatherDisplay:10.37,2013-12-20 21:33:00,
2013-12-20 15:38:00,74.2,66.9,29.70,SSE,153,8.1,8.1,78,0.00,CLR,,0.00,WeatherDisplay:10.37,2013-12-20 21:38:00,
2013-12-20 15:43:00,74.2,66.9,29.70,SSE,154,6.9,6.9,78,0.00,CLR,,0.00,WeatherDisplay:10.37,2013-12-20 21:43:00,
2013-12-20 15:48:00,74.3,67.0,29.69,SSE,162,5.8,5.8,78,0.00,CLR,,0.00,WeatherDisplay:10.37,2013-12-20 21:48:00,
2013-12-20 15:53:00,74.2,66.9,29.69,ESE,109,7.0,7.0,78,0.00,CLR,,0.00,WeatherDisplay:10.37,2013-12-20 21:53:00,
2013-12-20 15:58:00,74.2,66.9,29.69,SSE,153,4.6,4.8,78,0.00,CLR,,0.00,WeatherDisplay:10.37,2013-12-20 21:58:00,
2013-12-20 16:03:00,74.1,66.8,29.69,SE,125,6.9,6.9,78,0.00,CLR,,0.00,WeatherDisplay:10.37,2013-12-20 22:03:00,
2013-12-20 16:08:00,74.1,66.8,29.69,SE,142,8.1,8.1,78,0.00,CLR,,0.00,WeatherDisplay:10.37,2013-12-20 22:08:00,
2013-12-20 16:13:00,74.0,66.7,29.69,SE,130,4.6,4.6,78,0.00,CLR,,0.00,WeatherDisplay:10.37,2013-12-20 22:13:00,
2013-12-20 16:18:00,73.9,67.0,29.69,SE,142,3.5,3.5,79,0.00,CLR,,0.00,WeatherDisplay:10.37,2013-12-20 22:18:00,
2013-12-20 16:23:00,73.8,66.9,29.69,SE,139,5.8,5.8,79,0.00,CLR,,0.00,WeatherDisplay:10.37,2013-12-20 22:23:00,
2013-12-20 16:28:00,73.8,66.9,29.69,ESE,118,5.8,5.8,79,0.00,CLR,,0.00,WeatherDisplay:10.37,2013-12-20 22:28:00,
2013-12-20 16:33:00,73.7,66.8,29.69,SE,133,5.8,5.8,79,0.00,CLR,,0.00,WeatherDisplay:10.37,2013-12-20 22:33:00,
2013-12-20 16:38:00,73.6,66.7,29.69,SSE,153,3.5,3.5,79,0.00,CLR,,0.00,WeatherDisplay:10.37,2013-12-20 22:38:00,
2013-12-20 16:43:00,73.6,66.7,29.69,ESE,118,3.5,3.5,79,0.00,CLR,,0.00,WeatherDisplay:10.37,2013-12-20 22:43:00,
2013-12-20 16:48:00,73.6,66.7,29.69,SE,133,3.5,3.5,79,0.00,CLR,,0.00,WeatherDisplay:10.37,2013-12-20 22:48:00,
2013-12-20 16:53:00,73.5,66.6,29.69,SE,125,3.5,3.5,79,0.00,CLR,,0.00,WeatherDisplay:10.37,2013-12-20 22:53:00,
2013-12-20 16:58:00,73.5,66.9,29.69,ESE,121,3.5,3.5,80,0.00,CLR,,0.00,WeatherDisplay:10.37,2013-12-20 22:58:00,
2013-12-20 17:03:00,73.4,66.9,29.69,ESE,108,3.5,3.5,80,0.00,CLR,,0.00,WeatherDisplay:10.37,2013-12-20 23:03:00,
2013-12-20 17:08:00,73.3,66.8,29.68,SE,124,4.6,4.6,80,0.00,CLR,,0.00,WeatherDisplay:10.37,2013-12-20 23:08:00,
2013-12-20 17:13:00,73.2,66.7,29.68,ESE,121,4.6,4.6,80,0.00,CLR,,0.00,WeatherDisplay:10.37,2013-12-20 23:13:00,
2013-12-20 17:18:00,73.1,66.6,29.68,ESE,122,3.5,3.5,80,0.00,CLR,,0.00,WeatherDisplay:10.37,2013-12-20 23:18:00,
2013-12-20 17:23:00,72.9,66.4,29.68,ESE,111,4.6,4.6,80,0.00,CLR,,0.00,WeatherDisplay:10.37,2013-12-20 23:23:00,
2013-12-20 17:28:00,72.8,66.3,29.68,East,89,3.5,3.5,80,0.00,CLR,,0.00,WeatherDisplay:10.37,2013-12-20 23:28:00,
2013-12-20 17:33:00,72.5,66.3,29.68,East,92,3.5,3.5,81,0.00,CLR,,0.00,WeatherDisplay:10.37,2013-12-20 23:33:00,
2013-12-20 17:38:00,72.3,66.1,29.67,East,91,4.6,4.6,81,0.00,CLR,,0.00,WeatherDisplay:10.37,2013-12-20 23:38:00,
2013-12-20 17:43:00,72.1,66.3,29.67,East,90,4.6,4.6,82,0.00,CLR,,0.00,WeatherDisplay:10.37,2013-12-20 23:43:00,
2013-12-20 17:48:00,72.0,66.2,29.67,East,94,5.8,5.8,82,0.00,CLR,,0.00,WeatherDisplay:10.37,2013-12-20 23:48:00,
2013-12-20 17:53:00,71.9,66.1,29.67,East,95,6.9,6.9,82,0.00,CLR,,0.00,WeatherDisplay:10.37,2013-12-20 23:53:00,
2013-12-20 17:58:00,71.8,66.0,29.67,East,94,6.9,6.9,82,0.00,CLR,,0.00,WeatherDisplay:10.37,2013-12-20 23:58:00,
2013-12-20 18:03:00,71.7,65.9,29.67,East,90,6.9,6.9,82,0.00,CLR,,0.00,WeatherDisplay:10.37,2013-12-21 00:03:00,
2013-12-20 18:08:00,71.7,66.3,29.67,ESE,105,4.6,4.6,83,0.00,CLR,,0.00,WeatherDisplay:10.37,2013-12-21 00:08:00,
2013-12-20 18:13:00,71.6,66.2,29.67,East,91,4.6,4.6,83,0.00,CLR,,0.00,WeatherDisplay:10.37,2013-12-21 00:13:00,
2013-12-20 18:18:00,71.5,66.1,29.67,East,98,5.8,5.8,83,0.00,CLR,,0.00,WeatherDisplay:10.37,2013-12-21 00:18:00,
2013-12-20 18:23:00,71.4,66.3,29.67,East,99,3.5,3.5,84,0.00,CLR,,0.00,WeatherDisplay:10.37,2013-12-21 00:23:00,
2013-12-20 18:28:00,71.2,66.1,29.67,East,97,4.6,4.6,84,0.00,CLR,,0.00,WeatherDisplay:10.37,2013-12-21 00:28:00,
2013-12-20 18:33:00,71.1,66.0,29.67,ESE,103,4.6,4.6,84,0.00,CLR,,0.00,WeatherDisplay:10.37,2013-12-21 00:33:00,
2013-12-20 18:38:00,71.0,66.3,29.67,ESE,121,6.9,6.9,85,0.00,CLR,,0.00,WeatherDisplay:10.37,2013-12-21 00:38:00,
2013-12-20 18:43:00,71.0,66.6,29.67,SE,129,6.9,6.9,86,0.00,CLR,,0.00,WeatherDisplay:10.37,2013-12-21 00:43:00,
2013-12-20 18:48:00,71.1,66.7,29.67,ESE,119,5.8,6.1,86,0.00,CLR,,0.00,WeatherDisplay:10.37,2013-12-21 00:48:00,
2013-12-20 18:53:00,71.1,66.7,29.67,East,92,8.1,8.1,86,0.00,CLR,,0.00,WeatherDisplay:10.37,2013-12-21 00:53:00,
2013-12-20 18:58:00,71.1,66.7,29.67,ESE,104,7.0,7.0,86,0.00,CLR,,0.00,WeatherDisplay:10.37,2013-12-21 00:58:00,
2013-12-20 19:03:00,71.0,66.6,29.67,ESE,105,3.5,3.5,86,0.00,CLR,,0.00,WeatherDisplay:10.37,2013-12-21 01:03:00,
2013-12-20 19:08:00,70.8,66.7,29.67,East,91,3.5,3.5,87,0.00,CLR,,0.00,WeatherDisplay:10.37,2013-12-21 01:08:00,
2013-12-20 19:13:00,70.7,66.6,29.67,ENE,78,3.5,3.5,87,0.00,CLR,,0.00,WeatherDisplay:10.37,2013-12-21 01:13:00,
2013-12-20 19:18:00,70.6,66.5,29.67,ESE,115,3.5,3.8,87,0.00,CLR,,0.00,WeatherDisplay:10.37,2013-12-21 01:18:00,
2013-12-20 19:23:00,70.6,66.9,29.67,ESE,115,6.9,6.9,88,0.00,CLR,,0.00,WeatherDisplay:10.37,2013-12-21 01:23:00,
2013-12-20 19:28:00,70.7,67.0,29.67,SE,131,9.2,9.2,88,0.00,CLR,,0.00,WeatherDisplay:10.37,2013-12-21 01:28:00,
2013-12-20 19:33:00,70.9,67.5,29.67,ESE,112,11.5,11.5,89,0.00,CLR,,0.00,WeatherDisplay:10.37,2013-12-21 01:33:00,
2013-12-20 19:38:00,71.2,67.8,29.67,SSE,150,15.0,15.0,89,0.00,CLR,,0.00,WeatherDisplay:10.37,2013-12-21 01:38:00,
2013-12-20 19:43:00,71.5,68.1,29.67,SE,138,11.5,11.5,89,0.00,CLR,,0.00,WeatherDisplay:10.37,2013-12-21 01:43:00,
2013-12-20 19:48:00,71.5,68.1,29.67,SE,134,11.5,11.5,89,0.00,CLR,,0.00,WeatherDisplay:10.37,2013-12-21 01:48:00,
2013-12-20 19:53:00,71.5,68.1,29.67,SE,139,11.5,11.5,89,0.00,CLR,,0.00,WeatherDisplay:10.37,2013-12-21 01:53:00,
2013-12-20 19:58:00,71.5,68.1,29.68,SE,146,11.5,11.5,89,0.00,CLR,,0.00,WeatherDisplay:10.37,2013-12-21 01:58:00,
2013-12-20 20:03:00,71.4,68.0,29.68,SE,139,5.8,6.3,89,0.00,CLR,,0.00,WeatherDisplay:10.37,2013-12-21 02:03:00,
2013-12-20 20:08:00,71.4,68.0,29.68,ESE,117,11.5,11.5,89,0.00,CLR,,0.00,WeatherDisplay:10.37,2013-12-21 02:08:00,
2013-12-20 20:13:00,71.3,68.2,29.68,SE,124,11.5,11.5,90,0.00,CLR,,0.00,WeatherDisplay:10.37,2013-12-21 02:13:00,
2013-12-20 20:18:00,71.3,68.2,29.68,SE,126,12.7,12.7,90,0.00,CLR,,0.00,WeatherDisplay:10.37,2013-12-21 02:18:00,
2013-12-20 20:23:00,71.2,68.1,29.67,ENE,76,15.0,15.0,90,0.00,CLR,,0.00,WeatherDisplay:10.37,2013-12-21 02:23:00,
2013-12-20 20:28:00,71.2,68.1,29.67,ESE,123,15.0,15.0,90,0.00,CLR,,0.00,WeatherDisplay:10.37,2013-12-21 02:28:00,
2013-12-20 20:33:00,71.0,67.9,29.67,SE,125,13.8,13.8,90,0.00,CLR,,0.00,WeatherDisplay:10.37,2013-12-21 02:33:00,
2013-12-20 20:38:00,70.9,67.8,29.67,ESE,115,11.5,11.5,90,0.00,CLR,,0.00,WeatherDisplay:10.37,2013-12-21 02:38:00,
2013-12-20 20:43:00,70.9,68.1,29.67,SE,133,11.5,11.5,91,0.00,CLR,,0.00,WeatherDisplay:10.37,2013-12-21 02:43:00,
2013-12-20 20:48:00,70.9,68.1,29.67,SE,129,11.5,11.5,91,0.00,CLR,,0.00,WeatherDisplay:10.37,2013-12-21 02:48:00,
2013-12-20 20:53:00,71.0,67.9,29.67,SE,126,16.1,16.1,90,0.00,CLR,,0.00,WeatherDisplay:10.37,2013-12-21 02:53:00,
2013-12-20 20:58:00,71.0,67.9,29.66,SSE,166,12.7,12.7,90,0.00,CLR,,0.00,WeatherDisplay:10.37,2013-12-21 02:58:00,
2013-12-20 21:03:00,70.9,67.8,29.66,ESE,122,11.5,11.5,90,0.00,CLR,,0.00,WeatherDisplay:10.37,2013-12-21 03:03:00,
2013-12-20 21:08:00,70.9,67.8,29.67,SSE,151,14.0,14.0,90,0.00,CLR,,0.00,WeatherDisplay:10.37,2013-12-21 03:08:00,
2013-12-20 21:13:00,71.0,67.9,29.66,SE,132,13.8,13.8,90,0.00,CLR,,0.00,WeatherDisplay:10.37,2013-12-21 03:13:00,
2013-12-20 21:18:00,71.1,68.0,29.66,SE,136,12.7,12.7,90,0.00,CLR,,0.00,WeatherDisplay:10.37,2013-12-21 03:18:00,
2013-12-20 21:23:00,71.1,68.0,29.67,SE,125,10.4,10.4,90,0.00,CLR,,0.00,WeatherDisplay:10.37,2013-12-21 03:23:00,
2013-12-20 21:28:00,71.1,68.0,29.67,SSE,156,13.8,13.8,90,0.00,CLR,,0.00,WeatherDisplay:10.37,2013-12-21 03:28:00,
2013-12-20 21:33:00,71.0,67.9,29.67,SE,146,10.4,10.4,90,0.00,CLR,,0.00,WeatherDisplay:10.37,2013-12-21 03:33:00,
2013-12-20 21:38:00,71.0,67.9,29.67,SSE,167,11.5,11.5,90,0.00,CLR,,0.00,WeatherDisplay:10.37,2013-12-21 03:38:00,
2013-12-20 21:43:00,70.9,67.8,29.68,SE,146,10.4,10.4,90,0.00,CLR,,0.00,WeatherDisplay:10.37,2013-12-21 03:43:00,
2013-12-20 21:48:00,70.9,67.8,29.68,SE,146,10.4,10.4,90,0.00,CLR,,0.00,WeatherDisplay:10.37,2013-12-21 03:48:00,
2013-12-20 21:53:00,70.8,67.7,29.67,SE,127,11.5,11.5,90,0.00,CLR,,0.00,WeatherDisplay:10.37,2013-12-21 03:53:00,
2013-12-20 21:58:00,70.7,67.6,29.67,ESE,102,11.5,11.5,90,0.00,CLR,,0.00,WeatherDisplay:10.37,2013-12-21 03:58:00,
2013-12-20 22:03:00,70.6,67.5,29.67,South,173,11.0,11.0,90,0.00,CLR,,0.00,WeatherDisplay:10.37,2013-12-21 04:03:00,
2013-12-20 22:08:00,70.6,67.5,29.68,SSE,154,11.5,11.5,90,0.00,CLR,,0.00,WeatherDisplay:10.37,2013-12-21 04:08:00,
2013-12-20 22:13:00,70.5,67.4,29.68,SSE,154,10.4,10.4,90,0.00,CLR,,0.00,WeatherDisplay:10.37,2013-12-21 04:13:00,
2013-12-20 22:18:00,70.5,67.4,29.67,ESE,105,12.7,12.7,90,0.00,CLR,,0.00,WeatherDisplay:10.37,2013-12-21 04:18:00,
2013-12-20 22:23:00,70.5,67.4,29.66,SE,134,12.7,12.7,90,0.00,CLR,,0.00,WeatherDisplay:10.37,2013-12-21 04:23:00,
2013-12-20 22:28:00,70.5,67.4,29.65,ESE,122,15.0,15.0,90,0.00,CLR,,0.00,WeatherDisplay:10.37,2013-12-21 04:28:00,
2013-12-20 22:33:00,70.6,67.8,29.66,ESE,108,21.9,21.9,91,0.00,CLR,,0.00,WeatherDisplay:10.37,2013-12-21 04:33:00,
2013-12-20 22:38:00,70.8,67.7,29.67,SSE,164,12.7,12.7,90,0.00,CLR,,0.00,WeatherDisplay:10.37,2013-12-21 04:38:00,
2013-12-20 22:43:00,70.9,67.8,29.66,SE,138,18.4,18.4,90,0.00,CLR,,0.00,WeatherDisplay:10.37,2013-12-21 04:43:00,
2013-12-20 22:48:00,71.2,68.1,29.65,SSE,153,19.6,19.6,90,0.00,CLR,,0.00,WeatherDisplay:10.37,2013-12-21 04:48:00,
2013-12-20 22:53:00,71.4,68.0,29.65,SSE,148,26.5,26.5,89,0.00,CLR,,0.00,WeatherDisplay:10.37,2013-12-21 04:53:00,
2013-12-20 22:58:00,71.6,68.2,29.64,SE,132,17.3,17.3,89,0.00,CLR,,0.00,WeatherDisplay:10.37,2013-12-21 04:58:00,
2013-12-20 23:01:00,71.6,68.2,29.65,SSE,148,19.6,19.6,89,0.00,CLR,,0.00,WeatherDisplay:10.37,2013-12-21 05:01:00,
2013-12-20 23:06:00,71.8,68.1,29.65,SE,139,16.1,16.1,88,0.00,CLR,,0.00,WeatherDisplay:10.37,2013-12-21 05:06:00,
2013-12-20 23:11:00,71.9,68.2,29.65,SSE,165,21.9,21.9,88,0.00,CLR,,0.00,WeatherDisplay:10.37,2013-12-21 05:11:00,
2013-12-20 23:16:00,72.0,68.2,29.66,SSE,166,19.6,19.6,88,0.00,CLR,,0.00,WeatherDisplay:10.37,2013-12-21 05:16:00,
2013-12-20 23:21:00,72.1,68.3,29.65,SSE,166,20.7,20.7,88,0.00,CLR,,0.00,WeatherDisplay:10.37,2013-12-21 05:21:00,
2013-12-20 23:26:00,72.0,68.2,29.63,SE,146,16.1,16.1,88,0.00,CLR,,0.00,WeatherDisplay:10.37,2013-12-21 05:26:00,
2013-12-20 23:31:00,72.0,68.2,29.63,SSE,149,19.6,19.6,88,0.00,CLR,,0.00,WeatherDisplay:10.37,2013-12-21 05:31:00,
2013-12-20 23:36:00,72.1,68.3,29.63,SSE,153,19.6,19.6,88,0.00,CLR,,0.00,WeatherDisplay:10.37,2013-12-21 05:36:00,
2013-12-20 23:41:00,72.2,68.1,29.64,SSE,160,13.8,13.8,87,0.00,CLR,,0.00,WeatherDisplay:10.37,2013-12-21 05:41:00,
2013-12-20 23:46:00,72.3,68.2,29.64,SSE,166,25.3,25.3,87,0.00,CLR,,0.00,WeatherDisplay:10.37,2013-12-21 05:46:00,
2013-12-20 23:51:00,72.4,68.3,29.61,SE,139,21.9,21.9,87,0.00,CLR,,0.00,WeatherDisplay:10.37,2013-12-21 05:51:00,
2013-12-20 23:56:00,72.5,68.1,29.62,SSE,155,23.0,23.0,86,0.00,CLR,,0.00,WeatherDisplay:10.37,2013-12-21 05:56:00,